createdAt,value
2023-01-13T00:00:49.878Z,9.55
2023-01-13T00:03:16.327Z,9.52
2023-01-13T00:05:42.797Z,9.56
2023-01-13T00:08:09.282Z,9.52
2023-01-13T00:10:35.841Z,9.52
2023-01-13T00:13:03.237Z,9.57
2023-01-13T00:15:29.684Z,9.58
2023-01-13T00:17:56.161Z,9.55
2023-01-13T00:20:22.595Z,9.51
2023-01-13T00:22:49.096Z,9.52
2023-01-13T00:25:15.587Z,9.44
2023-01-13T00:27:42.092Z,9.40
2023-01-13T00:30:08.994Z,9.35
2023-01-13T00:32:35.436Z,9.34
2023-01-13T00:35:01.999Z,9.24
2023-01-13T00:37:28.442Z,9.13
2023-01-13T00:39:55.198Z,9.08
2023-01-13T00:42:21.789Z,8.99
2023-01-13T00:44:48.263Z,8.95
2023-01-13T00:47:14.713Z,8.88
2023-01-13T00:49:41.171Z,8.75
2023-01-13T00:52:07.623Z,8.65
2023-01-13T00:54:34.171Z,8.50
2023-01-13T00:57:00.615Z,8.50
2023-01-13T00:59:27.067Z,8.44
2023-01-13T01:01:53.575Z,8.43
2023-01-13T01:04:20.094Z,8.38
2023-01-13T01:06:46.540Z,8.33
2023-01-13T01:09:13.966Z,8.33
2023-01-13T01:11:40.587Z,8.26
2023-01-13T01:14:07.104Z,8.27
2023-01-13T01:16:33.890Z,8.30
2023-01-13T01:19:00.691Z,8.20
2023-01-13T01:21:27.902Z,8.24
2023-01-13T01:23:54.485Z,8.23
2023-01-13T01:26:22.688Z,8.19
2023-01-13T01:28:49.317Z,8.17
2023-01-13T01:31:21.246Z,8.13
2023-01-13T01:33:47.801Z,8.15
2023-01-13T01:36:15.502Z,8.23
2023-01-13T01:38:41.961Z,8.24
2023-01-13T01:41:09.258Z,8.26
2023-01-13T01:44:13.341Z,8.30
2023-01-13T01:46:43.801Z,8.29
2023-01-13T01:49:32.812Z,8.27
2023-01-13T01:52:02.830Z,8.19
2023-01-13T01:54:37.320Z,8.09
2023-01-13T01:57:03.958Z,8.15
2023-01-13T01:59:30.414Z,8.09
2023-01-13T02:01:56.940Z,8.07
2023-01-13T02:04:25.742Z,8.07
2023-01-13T02:06:52.208Z,8.09
2023-01-13T02:09:18.661Z,8.04
2023-01-13T02:11:45.143Z,8.04
2023-01-13T02:14:11.598Z,7.99
2023-01-13T02:16:38.619Z,8.00
2023-01-13T02:19:18.264Z,8.01
2023-01-13T02:21:53.784Z,8.03
2023-01-13T02:24:23.194Z,8.03
2023-01-13T02:27:08.389Z,8.07
2023-01-13T02:29:49.949Z,8.05
2023-01-13T02:32:22.167Z,8.10
2023-01-13T02:34:55.032Z,8.06
2023-01-13T02:37:27.429Z,8.03
2023-01-13T02:39:57.277Z,8.06
2023-01-13T02:42:33.376Z,8.06
2023-01-13T02:45:07.050Z,8.04
2023-01-13T02:47:35.569Z,7.98
2023-01-13T02:50:19.228Z,7.91
2023-01-13T02:52:54.868Z,7.84
2023-01-13T02:55:22.511Z,7.86
2023-01-13T02:57:48.856Z,7.87
2023-01-13T03:00:15.562Z,7.80
2023-01-13T03:02:42.064Z,7.71
2023-01-13T03:05:12.857Z,7.85
2023-01-13T03:07:48.260Z,7.85
2023-01-13T03:10:23.776Z,7.80
2023-01-13T03:13:05.199Z,7.82
2023-01-13T03:15:37.933Z,7.82
2023-01-13T03:18:17.955Z,7.78
2023-01-13T03:20:49.702Z,7.75
2023-01-13T03:23:38.742Z,7.83
2023-01-13T03:26:18.600Z,7.91
2023-01-13T03:28:58.050Z,7.82
2023-01-13T03:31:27.621Z,7.75
2023-01-13T03:34:14.381Z,7.69
2023-01-13T03:36:40.832Z,7.70
2023-01-13T03:39:12.251Z,7.60
2023-01-13T03:41:44.454Z,7.55
2023-01-13T03:44:28.020Z,7.51
2023-01-13T03:47:27.256Z,7.46
2023-01-13T03:49:54.927Z,7.48
2023-01-13T03:52:43.715Z,7.46
2023-01-13T03:55:18.060Z,7.42
2023-01-13T03:57:57.942Z,7.32
2023-01-13T04:00:27.452Z,7.27
2023-01-13T04:02:55.994Z,7.24
2023-01-13T04:05:22.417Z,7.27
2023-01-13T04:08:00.837Z,7.30
2023-01-13T04:10:33.504Z,7.28
2023-01-13T04:13:02.536Z,7.28
2023-01-13T04:15:34.133Z,7.19
2023-01-13T04:18:13.213Z,7.17
2023-01-13T04:20:39.662Z,7.18
2023-01-13T04:23:06.412Z,7.14
2023-01-13T04:25:32.944Z,7.13
2023-01-13T04:27:59.336Z,7.09
2023-01-13T04:30:25.780Z,7.06
2023-01-13T04:32:52.196Z,7.08
2023-01-13T04:35:18.652Z,7.10
2023-01-13T04:37:45.058Z,7.04
2023-01-13T04:40:11.669Z,7.01
2023-01-13T04:42:38.095Z,6.91
2023-01-13T04:45:04.842Z,6.87
2023-01-13T04:47:31.254Z,6.92
2023-01-13T04:49:57.682Z,6.89
2023-01-13T04:52:24.086Z,6.87
2023-01-13T04:54:50.579Z,6.91
2023-01-13T04:57:17.160Z,6.94
2023-01-13T04:59:43.629Z,6.91
2023-01-13T05:02:10.076Z,6.94
2023-01-13T05:04:36.683Z,6.99
2023-01-13T05:07:03.208Z,6.89
2023-01-13T05:09:29.705Z,6.89
2023-01-13T05:11:56.160Z,6.90
2023-01-13T05:14:22.736Z,6.92
2023-01-13T05:16:52.003Z,6.93
2023-01-13T05:19:18.413Z,6.87
2023-01-13T05:21:44.851Z,6.93
2023-01-13T05:24:11.272Z,6.90
2023-01-13T05:26:37.785Z,6.89
2023-01-13T05:29:04.180Z,6.80
2023-01-13T05:31:30.658Z,6.84
2023-01-13T05:33:57.053Z,6.87
2023-01-13T05:36:23.477Z,6.81
2023-01-13T05:38:51.428Z,7.00
2023-01-13T05:41:17.859Z,7.06
2023-01-13T05:43:44.410Z,7.10
2023-01-13T05:46:10.934Z,7.13
2023-01-13T05:48:42.020Z,7.08
2023-01-13T05:51:09.844Z,7.06
2023-01-13T05:53:36.666Z,7.11
2023-01-13T05:56:08.964Z,7.11
2023-01-13T05:58:35.491Z,7.12
2023-01-13T06:01:03.955Z,7.15
2023-01-13T06:03:30.443Z,7.13
2023-01-13T06:05:56.895Z,7.06
2023-01-13T06:08:23.300Z,7.09
2023-01-13T06:10:49.719Z,7.03
2023-01-13T06:13:16.152Z,7.00
2023-01-13T06:15:42.736Z,6.89
2023-01-13T06:18:09.241Z,7.00
2023-01-13T06:20:35.666Z,7.04
2023-01-13T06:23:02.105Z,6.97
2023-01-13T06:25:28.377Z,7.03
2023-01-13T06:27:55.552Z,6.96
2023-01-13T06:30:22.115Z,7.04
2023-01-13T06:32:52.254Z,7.01
2023-01-13T06:35:20.880Z,7.00
2023-01-13T06:37:48.009Z,6.98
2023-01-13T06:40:14.394Z,6.99
2023-01-13T06:42:40.832Z,7.02
2023-01-13T06:45:07.798Z,7.00
2023-01-13T06:47:34.207Z,7.02
2023-01-13T06:50:00.624Z,7.00
2023-01-13T06:52:27.147Z,7.04
2023-01-13T06:54:53.566Z,7.04
2023-01-13T06:57:19.985Z,7.02
2023-01-13T06:59:46.421Z,7.07
2023-01-13T07:02:12.931Z,7.15
2023-01-13T07:04:39.431Z,7.20
2023-01-13T07:07:05.843Z,7.23
2023-01-13T07:09:32.293Z,7.24
2023-01-13T07:11:58.725Z,7.25
2023-01-13T07:14:25.155Z,7.30
2023-01-13T07:16:52.372Z,7.30
2023-01-13T07:19:20.389Z,7.31
2023-01-13T07:21:47.826Z,7.24
2023-01-13T07:24:14.349Z,7.28
2023-01-13T07:26:40.759Z,7.28
2023-01-13T07:29:08.366Z,7.25
2023-01-13T07:31:34.846Z,7.25
2023-01-13T07:34:01.326Z,7.20
2023-01-13T07:36:27.788Z,7.28
2023-01-13T07:38:55.005Z,7.27
2023-01-13T07:41:21.496Z,7.26
2023-01-13T07:43:48.137Z,7.29
2023-01-13T07:46:14.668Z,7.28
2023-01-13T07:48:41.126Z,7.22
2023-01-13T07:51:11.771Z,7.19
2023-01-13T07:53:38.409Z,7.25
2023-01-13T07:56:05.993Z,7.27
2023-01-13T07:58:36.049Z,7.25
2023-01-13T08:01:09.864Z,7.22
2023-01-13T08:03:36.451Z,7.28
2023-01-13T08:06:02.922Z,7.33
2023-01-13T08:08:29.435Z,7.37
2023-01-13T08:10:59.272Z,7.51
2023-01-13T08:13:25.683Z,7.51
2023-01-13T08:15:53.955Z,7.52
2023-01-13T08:18:21.391Z,7.57
2023-01-13T08:20:48.651Z,7.62
2023-01-13T08:23:15.233Z,7.67
2023-01-13T08:25:41.626Z,7.68
2023-01-13T08:28:08.052Z,7.68
2023-01-13T08:30:34.544Z,7.74
2023-01-13T08:33:01.155Z,7.78
2023-01-13T08:35:27.592Z,7.80
2023-01-13T08:37:54.081Z,7.77
2023-01-13T08:40:20.536Z,7.85
2023-01-13T08:42:48.623Z,7.93
2023-01-13T08:45:15.350Z,7.92
2023-01-13T08:47:41.831Z,7.97
2023-01-13T08:50:08.776Z,7.91
2023-01-13T08:52:35.189Z,7.89
2023-01-13T08:55:01.614Z,7.93
2023-01-13T08:57:28.115Z,7.97
2023-01-13T08:59:54.679Z,8.02
2023-01-13T09:02:22.004Z,7.99
2023-01-13T09:04:49.048Z,7.99
2023-01-13T09:07:15.961Z,8.00
2023-01-13T09:09:54.441Z,8.07
2023-01-13T09:12:20.962Z,8.09
2023-01-13T09:14:47.433Z,8.02
2023-01-13T09:17:14.037Z,7.95
2023-01-13T09:19:40.622Z,7.96
2023-01-13T09:22:07.088Z,7.97
2023-01-13T09:24:33.537Z,7.95
2023-01-13T09:27:00.017Z,7.93
2023-01-13T09:29:26.456Z,8.04
2023-01-13T09:31:52.877Z,8.10
2023-01-13T09:34:21.630Z,8.17
2023-01-13T09:36:49.065Z,8.21
2023-01-13T09:39:15.634Z,8.25
2023-01-13T09:41:46.714Z,8.25
2023-01-13T09:44:19.207Z,8.28
2023-01-13T09:46:48.676Z,8.31
2023-01-13T09:49:24.526Z,8.23
2023-01-13T09:52:07.779Z,8.17
2023-01-13T09:54:38.671Z,8.17
2023-01-13T09:57:09.839Z,8.19
2023-01-13T09:59:36.406Z,8.17
2023-01-13T10:02:46.413Z,8.17
2023-01-13T10:05:21.377Z,8.16
2023-01-13T10:08:10.823Z,8.14
2023-01-13T10:10:38.700Z,8.11
2023-01-13T10:13:29.131Z,8.14
2023-01-13T10:16:12.072Z,8.09
2023-01-13T10:19:00.540Z,8.18
2023-01-13T10:21:51.315Z,8.17
2023-01-13T10:24:56.559Z,8.22
2023-01-13T10:27:24.942Z,8.23
2023-01-13T10:29:51.386Z,8.23
2023-01-13T10:32:17.791Z,8.30
2023-01-13T10:34:48.091Z,8.32
2023-01-13T10:37:26.263Z,8.32
2023-01-13T10:39:56.640Z,8.26
2023-01-13T10:42:23.491Z,8.21
2023-01-13T10:44:50.957Z,8.17
2023-01-13T10:47:34.803Z,8.05
2023-01-13T10:50:28.782Z,8.02
2023-01-13T10:53:24.690Z,7.81
2023-01-13T10:56:04.355Z,7.78
2023-01-13T10:58:30.812Z,7.68
2023-01-13T11:01:05.242Z,7.57
2023-01-13T11:03:41.138Z,7.43
2023-01-13T11:06:07.936Z,7.39
2023-01-13T11:08:43.491Z,7.30
2023-01-13T11:11:39.115Z,7.24
2023-01-13T11:14:27.403Z,7.29
2023-01-13T11:16:55.976Z,7.32
2023-01-13T11:19:22.795Z,7.32
2023-01-13T11:21:49.110Z,7.45
2023-01-13T11:24:37.659Z,7.45
2023-01-13T11:27:30.234Z,7.73
2023-01-13T11:30:21.420Z,7.82
2023-01-13T11:33:03.665Z,7.92
2023-01-13T11:35:30.731Z,8.04
2023-01-13T11:38:06.499Z,8.00
2023-01-13T11:40:36.604Z,8.01
2023-01-13T11:43:18.133Z,7.97
2023-01-13T11:45:46.790Z,7.92
2023-01-13T11:48:15.882Z,7.87
2023-01-13T11:50:57.809Z,7.79
2023-01-13T11:53:30.569Z,7.77
2023-01-13T11:56:25.039Z,7.79
2023-01-13T11:59:01.486Z,7.82
2023-01-13T12:01:30.979Z,7.81
2023-01-13T12:04:06.402Z,7.81
2023-01-13T12:06:35.403Z,7.74
2023-01-13T12:09:14.576Z,7.66
2023-01-13T12:11:53.266Z,7.61
2023-01-13T12:14:43.899Z,7.56
2023-01-13T12:17:22.084Z,7.52
2023-01-13T12:19:59.641Z,7.51
2023-01-13T12:22:31.789Z,7.47
2023-01-13T12:25:03.124Z,7.48
2023-01-13T12:27:44.527Z,7.49
2023-01-13T12:30:48.195Z,7.49
2023-01-13T12:33:32.495Z,7.52
2023-01-13T12:36:02.821Z,7.52
2023-01-13T12:39:30.981Z,7.55
2023-01-13T12:42:38.668Z,7.54
2023-01-13T12:45:07.737Z,7.51
2023-01-13T12:47:40.983Z,7.46
2023-01-13T12:50:22.340Z,7.49
2023-01-13T12:52:51.721Z,7.42
2023-01-13T12:55:24.668Z,7.38
2023-01-13T12:58:06.410Z,7.41
2023-01-13T13:00:42.019Z,7.40
2023-01-13T13:03:08.499Z,7.39
2023-01-13T13:05:43.592Z,7.35
2023-01-13T13:08:41.082Z,7.39
2023-01-13T13:11:13.246Z,7.37
2023-01-13T13:13:44.541Z,7.36
2023-01-13T13:16:26.232Z,7.39
2023-01-13T13:18:53.532Z,7.41
2023-01-13T13:21:20.079Z,7.53
2023-01-13T13:24:00.801Z,7.52
2023-01-13T13:26:53.501Z,7.53
2023-01-13T13:29:19.833Z,7.55
2023-01-13T13:32:10.499Z,7.56
2023-01-13T13:35:34.530Z,7.51
2023-01-13T13:38:22.288Z,7.51
2023-01-13T13:40:48.757Z,7.39
2023-01-13T13:43:15.259Z,7.33
2023-01-13T13:45:51.096Z,7.33
2023-01-13T13:48:26.355Z,7.27
2023-01-13T13:50:55.794Z,7.25
2023-01-13T13:53:22.257Z,7.28
2023-01-13T13:55:55.982Z,7.27
2023-01-13T13:58:23.547Z,7.23
2023-01-13T14:00:50.048Z,7.21
2023-01-13T14:03:36.751Z,7.16
2023-01-13T14:06:06.096Z,7.20
2023-01-13T14:08:37.105Z,7.18
2023-01-13T14:11:25.052Z,7.13
2023-01-13T14:14:12.349Z,7.05
2023-01-13T14:16:38.828Z,7.02
2023-01-13T14:19:05.269Z,7.04
2023-01-13T14:21:31.701Z,7.05
2023-01-13T14:24:01.797Z,7.08
2023-01-13T14:26:30.154Z,7.09
2023-01-13T14:28:56.791Z,7.15
2023-01-13T14:31:23.522Z,7.12
2023-01-13T14:33:54.675Z,7.10
2023-01-13T14:36:25.161Z,7.20
2023-01-13T14:39:03.692Z,7.22
2023-01-13T14:41:43.381Z,7.21
2023-01-13T14:44:12.833Z,7.23
2023-01-13T14:46:43.544Z,7.20
2023-01-13T14:49:54.342Z,7.21
2023-01-13T14:52:23.071Z,7.18
2023-01-13T14:55:07.968Z,7.28
2023-01-13T14:57:35.380Z,7.26
2023-01-13T15:00:14.205Z,7.27
2023-01-13T15:02:40.732Z,7.29
2023-01-13T15:05:22.167Z,7.26
2023-01-13T15:07:53.317Z,7.16
2023-01-13T15:10:21.195Z,7.13
2023-01-13T15:12:49.968Z,7.18
2023-01-13T15:15:24.997Z,7.07
2023-01-13T15:17:52.029Z,7.05
2023-01-13T15:20:20.477Z,6.97
2023-01-13T15:22:47.606Z,6.99
2023-01-13T15:25:14.113Z,6.94
2023-01-13T15:27:41.007Z,6.98
2023-01-13T15:30:21.938Z,6.87
2023-01-13T15:32:48.373Z,6.76
2023-01-13T15:35:15.679Z,6.68
2023-01-13T15:37:42.771Z,6.58
2023-01-13T15:40:20.779Z,6.60
2023-01-13T15:42:47.259Z,6.49
2023-01-13T15:45:13.748Z,6.49
2023-01-13T15:47:40.145Z,6.47
2023-01-13T15:50:09.506Z,6.39
2023-01-13T15:52:35.943Z,6.37
2023-01-13T15:55:02.368Z,6.33
2023-01-13T15:57:30.345Z,6.32
2023-01-13T16:00:00.919Z,6.32
2023-01-13T16:02:27.412Z,6.34
2023-01-13T16:04:54.042Z,6.35
2023-01-13T16:07:21.027Z,6.32
2023-01-13T16:09:47.481Z,6.35
2023-01-13T16:12:16.564Z,6.34
2023-01-13T16:14:43.041Z,6.40
2023-01-13T16:17:17.392Z,6.46
2023-01-13T16:19:44.393Z,6.51
2023-01-13T16:22:13.556Z,6.56
2023-01-13T16:24:43.341Z,6.57
2023-01-13T16:27:20.526Z,6.55
2023-01-13T16:29:51.313Z,6.54
2023-01-13T16:32:19.599Z,6.54
2023-01-13T16:34:46.087Z,6.56
2023-01-13T16:37:23.869Z,6.58
2023-01-13T16:39:52.632Z,6.66
2023-01-13T16:42:19.782Z,6.51
2023-01-13T16:44:46.185Z,6.51
2023-01-13T16:47:14.230Z,6.58
2023-01-13T16:49:40.786Z,6.56
2023-01-13T16:52:07.297Z,6.53
2023-01-13T16:54:33.776Z,6.44
2023-01-13T16:57:03.694Z,6.42
2023-01-13T16:59:30.122Z,6.42
2023-01-13T17:01:56.551Z,6.31
2023-01-13T17:04:24.718Z,6.39
2023-01-13T17:07:06.002Z,6.34
2023-01-13T17:09:34.526Z,6.28
2023-01-13T17:12:01.155Z,6.22
2023-01-13T17:14:27.617Z,6.15
2023-01-13T17:16:55.254Z,6.17
2023-01-13T17:19:22.254Z,6.21
2023-01-13T17:21:51.417Z,6.21
2023-01-13T17:24:17.986Z,6.23
2023-01-13T17:26:46.014Z,6.20
2023-01-13T17:29:20.207Z,6.24
2023-01-13T17:31:48.803Z,6.28
2023-01-13T17:34:17.336Z,6.28
2023-01-13T17:36:43.815Z,6.36
2023-01-13T17:39:17.947Z,6.34
2023-01-13T17:41:44.898Z,6.39
2023-01-13T17:44:18.297Z,6.40
2023-01-13T17:46:44.888Z,6.45
2023-01-13T17:49:12.094Z,6.49
2023-01-13T17:51:38.531Z,6.45
2023-01-13T17:54:04.982Z,6.49
2023-01-13T17:56:31.415Z,6.50
2023-01-13T17:58:57.833Z,6.53
2023-01-13T18:01:24.355Z,6.57
2023-01-13T18:03:51.096Z,6.57
2023-01-13T18:06:19.904Z,6.53
2023-01-13T18:08:46.453Z,6.50
2023-01-13T18:11:13.424Z,6.50
2023-01-13T18:13:39.992Z,6.51
2023-01-13T18:16:08.205Z,6.51
2023-01-13T18:18:34.633Z,6.43
2023-01-13T18:21:01.261Z,6.37
2023-01-13T18:23:27.752Z,6.35
2023-01-13T18:25:55.220Z,6.32
2023-01-13T18:28:21.733Z,6.32
2023-01-13T18:30:48.325Z,6.27
2023-01-13T18:33:14.840Z,6.29
2023-01-13T18:35:41.253Z,6.30
2023-01-13T18:38:07.662Z,6.26
2023-01-13T18:40:34.054Z,6.30
2023-01-13T18:43:00.482Z,6.32
2023-01-13T18:45:35.518Z,6.37
2023-01-13T18:48:02.946Z,6.34
2023-01-13T18:50:33.281Z,6.32
2023-01-13T18:52:59.817Z,6.19
2023-01-13T18:55:26.335Z,6.21
2023-01-13T18:57:53.766Z,6.13
2023-01-13T19:00:20.587Z,6.15
2023-01-13T19:02:48.965Z,6.22
2023-01-13T19:05:15.463Z,6.21
2023-01-13T19:07:42.634Z,6.20
2023-01-13T19:10:09.797Z,6.19
2023-01-13T19:12:36.255Z,6.16
2023-01-13T19:15:07.940Z,6.16
2023-01-13T19:17:34.745Z,6.11
2023-01-13T19:20:01.206Z,6.14
2023-01-13T19:22:30.855Z,6.12
2023-01-13T19:24:57.543Z,6.18
2023-01-13T19:27:24.338Z,6.18
2023-01-13T19:29:52.424Z,6.16
2023-01-13T19:32:22.395Z,6.18
2023-01-13T19:34:49.121Z,6.17
2023-01-13T19:37:15.682Z,6.18
2023-01-13T19:39:42.089Z,6.17
2023-01-13T19:42:11.209Z,6.17
2023-01-13T19:44:37.639Z,6.18
2023-01-13T19:47:04.086Z,6.24
2023-01-13T19:49:30.465Z,6.23
2023-01-13T19:51:56.964Z,6.15
2023-01-13T19:54:23.484Z,6.24
2023-01-13T19:56:49.925Z,6.26
2023-01-13T19:59:16.408Z,6.27
2023-01-13T20:01:43.036Z,6.23
2023-01-13T20:04:09.517Z,6.22
2023-01-13T20:06:35.929Z,6.17
2023-01-13T20:09:02.341Z,6.12
2023-01-13T20:11:30.987Z,6.10
2023-01-13T20:13:58.065Z,6.14
2023-01-13T20:16:24.504Z,6.12
2023-01-13T20:18:50.956Z,6.13
2023-01-13T20:21:17.960Z,6.18
2023-01-13T20:23:44.560Z,6.13
2023-01-13T20:26:11.099Z,6.14
2023-01-13T20:28:37.534Z,6.13
2023-01-13T20:31:11.155Z,6.12
2023-01-13T20:33:37.714Z,6.08
2023-01-13T20:36:04.715Z,6.11
2023-01-13T20:38:31.164Z,6.08
2023-01-13T20:41:02.488Z,6.07
2023-01-13T20:43:28.919Z,6.10
2023-01-13T20:45:55.395Z,6.10
2023-01-13T20:48:21.895Z,6.15
2023-01-13T20:50:54.717Z,6.14
2023-01-13T20:53:21.247Z,6.08
2023-01-13T20:55:47.754Z,6.13
2023-01-13T20:58:14.170Z,6.14
2023-01-13T21:00:40.605Z,6.11
2023-01-13T21:03:07.050Z,6.14
2023-01-13T21:05:35.726Z,6.20
2023-01-13T21:08:02.340Z,6.19
2023-01-13T21:10:28.780Z,6.19
2023-01-13T21:12:55.185Z,6.23
2023-01-13T21:15:21.965Z,6.26
2023-01-13T21:17:49.933Z,6.23
2023-01-13T21:20:16.423Z,6.25
2023-01-13T21:22:46.197Z,6.20
2023-01-13T21:25:12.756Z,6.16
2023-01-13T21:27:39.170Z,6.08
2023-01-13T21:30:06.150Z,6.09
2023-01-13T21:32:32.541Z,6.13
2023-01-13T21:34:58.953Z,6.09
2023-01-13T21:37:25.414Z,6.11
2023-01-13T21:39:51.904Z,6.11
2023-01-13T21:42:18.409Z,6.15
2023-01-13T21:44:44.815Z,6.19
2023-01-13T21:47:17.752Z,6.13
2023-01-13T21:49:44.293Z,6.15
2023-01-13T21:52:13.872Z,6.18
2023-01-13T21:54:40.461Z,6.18
2023-01-13T21:57:06.937Z,6.15
2023-01-13T21:59:33.367Z,6.19
2023-01-13T22:02:24.616Z,6.19
2023-01-13T22:04:46.205Z,6.20
2023-01-13T22:07:12.619Z,6.19
2023-01-13T22:09:39.154Z,6.17
2023-01-13T22:12:05.660Z,6.18
2023-01-13T22:14:32.485Z,6.21
2023-01-13T22:16:58.896Z,6.21
2023-01-13T22:19:25.419Z,6.25
2023-01-13T22:21:51.823Z,6.21
2023-01-13T22:24:18.264Z,6.29
2023-01-13T22:26:44.699Z,6.22
2023-01-13T22:29:11.161Z,6.16
2023-01-13T22:31:37.768Z,6.17
2023-01-13T22:34:04.177Z,6.18
2023-01-13T22:36:30.630Z,6.18
2023-01-13T22:38:57.106Z,6.21
2023-01-13T22:41:23.640Z,6.18
2023-01-13T22:43:50.051Z,6.09
2023-01-13T22:46:16.492Z,6.18
2023-01-13T22:48:43.412Z,6.22
2023-01-13T22:51:11.338Z,6.22
2023-01-13T22:53:38.058Z,6.13
2023-01-13T22:56:04.921Z,6.22
2023-01-13T22:58:31.331Z,6.28
2023-01-13T23:01:07.697Z,6.22
2023-01-13T23:03:34.171Z,6.25
2023-01-13T23:06:00.642Z,6.22
2023-01-13T23:08:27.169Z,6.29
2023-01-13T23:11:00.390Z,6.29
2023-01-13T23:13:26.809Z,6.29
2023-01-13T23:15:55.989Z,6.26
2023-01-13T23:18:25.567Z,6.34
2023-01-13T23:20:51.976Z,6.32
2023-01-13T23:23:18.363Z,6.34
2023-01-13T23:25:51.163Z,6.29
2023-01-13T23:28:17.569Z,6.31
2023-01-13T23:30:44.028Z,6.33
2023-01-13T23:33:10.458Z,6.32
2023-01-13T23:35:36.908Z,6.41
2023-01-13T23:38:03.332Z,6.35
2023-01-13T23:40:29.750Z,6.34
2023-01-13T23:42:58.416Z,6.33
2023-01-13T23:45:25.963Z,6.35
2023-01-13T23:47:52.499Z,6.34
2023-01-13T23:50:18.902Z,6.38
2023-01-13T23:52:45.331Z,6.41
2023-01-13T23:55:11.814Z,6.40
2023-01-13T23:57:38.221Z,6.38
